Time;durP1;ratioP1;P1;durP2;ratioP2;P2;SDS_P1;SDS_P2;PMS_P1;PMS_P2;Temp;Humidity;BMP_temperature;BMP_pressure;BME280_temperature;BME280_humidity;BME280_pressure;Samples;Min_cycle;Max_cycle;Signal;HPM_P1;HPM_P2
2023/01/28 00:01:08;;;;;;;8.70;6.47;;;3.30;99.90;;;;;;5123971;27;20043;-66
2023/01/28 00:03:34;;;;;;;8.15;6.63;;;3.20;99.90;;;;;;5100994;28;20034;-67
2023/01/28 00:06:10;;;;;;;8.40;6.90;;;3.20;99.90;;;;;;5120304;27;20043;-65
2023/01/28 00:08:36;;;;;;;6.88;6.18;;;3.20;99.90;;;;;;5116566;27;20040;-66
2023/01/28 00:11:04;;;;;;;6.60;5.90;;;3.20;99.90;;;;;;5111601;27;20027;-66
2023/01/28 00:13:31;;;;;;;6.47;5.88;;;3.10;99.90;;;;;;5112238;27;20449;-67
2023/01/28 00:16:06;;;;;;;5.88;5.38;;;3.10;99.90;;;;;;5122707;27;20042;-66
2023/01/28 00:18:33;;;;;;;5.72;5.13;;;3.10;99.90;;;;;;5125289;27;20035;-65
2023/01/28 00:21:01;;;;;;;6.28;5.68;;;3.20;99.90;;;;;;5128949;27;20043;-66
2023/01/28 00:23:28;;;;;;;6.00;5.50;;;3.20;99.90;;;;;;5119069;27;20494;-65
2023/01/28 00:25:54;;;;;;;7.65;5.90;;;3.20;99.90;;;;;;5108563;28;20027;-66
2023/01/28 00:28:21;;;;;;;7.25;6.22;;;3.20;99.90;;;;;;5108769;28;20046;-67
2023/01/28 00:30:46;;;;;;;6.03;5.47;;;3.10;99.90;;;;;;5113678;28;20035;-67
2023/01/28 00:33:12;;;;;;;6.57;5.97;;;3.10;99.90;;;;;;5113994;28;20047;-66
2023/01/28 00:35:38;;;;;;;6.82;6.05;;;3.20;99.90;;;;;;5126344;27;20027;-67
2023/01/28 00:38:04;;;;;;;6.80;6.18;;;3.10;99.90;;;;;;5088218;28;20451;-66
2023/01/28 00:40:30;;;;;;;6.30;5.65;;;3.10;99.90;;;;;;5126879;28;20043;-66
2023/01/28 00:42:56;;;;;;;6.88;6.18;;;3.10;99.90;;;;;;5113086;28;20048;-66
2023/01/28 00:45:21;;;;;;;7.60;6.07;;;3.10;99.90;;;;;;5124308;28;20130;-66
2023/01/28 00:47:47;;;;;;;7.88;6.13;;;3.10;99.90;;;;;;5091491;28;20108;-67
2023/01/28 00:50:13;;;;;;;6.25;5.68;;;3.10;99.90;;;;;;5109765;28;20490;-67
2023/01/28 00:52:39;;;;;;;6.57;5.82;;;3.10;99.90;;;;;;5119967;27;20046;-67
2023/01/28 00:55:05;;;;;;;6.93;6.15;;;3.10;99.90;;;;;;5131765;27;20482;-66
2023/01/28 00:57:32;;;;;;;6.95;6.25;;;3.10;99.90;;;;;;5112359;27;20486;-65
2023/01/28 00:59:58;;;;;;;6.53;5.93;;;3.00;99.90;;;;;;5116966;27;20040;-66
2023/01/28 01:02:24;;;;;;;6.43;5.82;;;3.00;99.90;;;;;;5124378;27;20043;-65
2023/01/28 01:04:59;;;;;;;6.25;5.65;;;3.00;99.90;;;;;;5102649;27;20046;-66
2023/01/28 01:07:45;;;;;;;6.65;6.05;;;3.00;99.90;;;;;;5129053;27;20453;-65
2023/01/28 01:10:14;;;;;;;6.60;6.00;;;2.90;99.90;;;;;;5118008;27;20044;-66
2023/01/28 01:12:40;;;;;;;6.32;5.57;;;2.90;99.90;;;;;;5118683;27;20401;-65
2023/01/28 01:15:09;;;;;;;6.43;5.82;;;2.90;99.90;;;;;;5111839;27;20379;-64
2023/01/28 01:17:43;;;;;;;6.60;6.00;;;3.00;99.90;;;;;;5131832;27;20058;-67
2023/01/28 01:20:21;;;;;;;7.28;6.15;;;2.90;99.90;;;;;;5126575;27;20034;-67
2023/01/28 01:22:47;;;;;;;7.15;6.45;;;2.90;99.90;;;;;;5131751;27;20092;-67
2023/01/28 01:25:14;;;;;;;6.65;6.05;;;2.90;99.90;;;;;;5107912;28;20051;-66
2023/01/28 01:27:41;;;;;;;7.20;6.15;;;2.80;99.90;;;;;;5131486;27;20046;-65
2023/01/28 01:30:08;;;;;;;7.30;6.60;;;2.80;99.90;;;;;;5130626;27;20081;-68
2023/01/28 01:32:34;;;;;;;7.60;6.90;;;2.80;99.90;;;;;;5128854;27;20587;-67
2023/01/28 01:35:00;;;;;;;9.13;6.85;;;2.80;99.90;;;;;;5117752;27;20443;-67
2023/01/28 01:37:27;;;;;;;7.38;6.68;;;2.80;99.90;;;;;;5112631;28;21489;-67
2023/01/28 01:39:52;;;;;;;7.80;7.10;;;2.80;99.90;;;;;;5113344;27;20120;-67
2023/01/28 01:42:18;;;;;;;7.53;6.80;;;2.80;99.90;;;;;;5120209;27;20035;-66
2023/01/28 01:45:05;;;;;;;8.18;7.18;;;2.80;99.90;;;;;;5129267;27;20064;-65
2023/01/28 01:47:34;;;;;;;7.93;7.13;;;2.70;99.90;;;;;;5106878;27;20447;-66
2023/01/28 01:50:05;;;;;;;8.73;7.82;;;2.70;99.90;;;;;;5115757;27;20061;-66
2023/01/28 01:52:34;;;;;;;7.68;6.97;;;2.60;99.90;;;;;;5123289;27;20086;-67
2023/01/28 01:55:04;;;;;;;8.50;7.55;;;2.60;99.90;;;;;;5116841;27;20105;-65
2023/01/28 01:57:33;;;;;;;8.80;7.95;;;2.70;99.90;;;;;;5110485;27;20027;-66
2023/01/28 02:00:05;;;;;;;8.60;7.80;;;2.70;99.90;;;;;;5130830;27;20043;-66
2023/01/28 02:02:40;;;;;;;8.90;8.10;;;2.60;99.90;;;;;;5113594;27;20035;-67
2023/01/28 02:05:07;;;;;;;8.90;8.07;;;2.60;99.90;;;;;;5122495;27;20039;-67
2023/01/28 02:07:33;;;;;;;9.57;8.68;;;2.50;99.90;;;;;;5114364;27;20489;-66
2023/01/28 02:09:59;;;;;;;8.88;7.97;;;2.50;99.90;;;;;;5108257;27;20044;-66
2023/01/28 02:12:35;;;;;;;9.10;8.20;;;2.50;99.90;;;;;;5126731;27;20081;-66
2023/01/28 02:15:20;;;;;;;9.07;8.18;;;2.50;99.90;;;;;;5115801;27;20047;-67
2023/01/28 02:17:48;;;;;;;9.80;8.80;;;2.50;99.90;;;;;;5118430;27;20512;-65
2023/01/28 02:20:21;;;;;;;9.80;8.90;;;2.50;99.90;;;;;;5130824;27;20046;-65
2023/01/28 02:23:16;;;;;;;9.15;8.25;;;2.50;99.90;;;;;;5117809;27;20042;-66
2023/01/28 02:26:01;;;;;;;8.90;8.10;;;2.50;99.90;;;;;;5130075;27;20050;-67
2023/01/28 02:29:07;;;;;;;9.48;8.48;;;2.50;99.90;;;;;;5092149;28;20047;-66
2023/01/28 02:31:35;;;;;;;9.50;8.60;;;2.50;99.90;;;;;;5130728;27;20047;-66
2023/01/28 02:34:22;;;;;;;9.90;8.90;;;2.50;99.90;;;;;;5117837;27;20534;-67
2023/01/28 02:36:54;;;;;;;10.70;9.20;;;2.60;99.90;;;;;;5112673;27;20078;-66
2023/01/28 02:39:27;;;;;;;10.82;9.13;;;2.60;99.90;;;;;;5110497;27;20035;-65
2023/01/28 02:42:03;;;;;;;9.85;8.85;;;2.60;99.90;;;;;;5092046;28;20153;-67
2023/01/28 02:44:29;;;;;;;9.63;8.65;;;2.60;99.90;;;;;;5109176;28;20039;-66
2023/01/28 02:49:40;;;;;;;10.10;9.10;;;2.60;99.90;;;;;;5123407;27;20088;-66
2023/01/28 02:52:09;;;;;;;10.68;9.45;;;2.60;99.90;;;;;;5119119;27;20044;-66
2023/01/28 02:54:39;;;;;;;10.05;9.05;;;2.50;99.90;;;;;;5113381;27;20062;-66
2023/01/28 02:57:26;;;;;;;10.52;9.43;;;2.50;99.90;;;;;;5094446;28;20046;-67
2023/01/28 02:59:58;;;;;;;10.35;9.35;;;2.50;99.90;;;;;;5104090;28;20081;-66
2023/01/28 03:02:53;;;;;;;10.25;8.40;;;2.50;99.90;;;;;;5126633;27;20036;-68
2023/01/28 03:05:27;;;;;;;10.15;9.15;;;2.50;99.90;;;;;;5124570;27;20090;-66
2023/01/28 03:07:53;;;;;;;10.05;9.05;;;2.60;99.90;;;;;;5107699;28;20169;-67
2023/01/28 03:10:22;;;;;;;10.02;9.02;;;2.60;99.90;;;;;;5119817;27;20122;-66
2023/01/28 03:38:21;;;;;;;11.43;10.13;;;2.60;99.90;;;;;;5115739;27;20440;-67
2023/01/28 03:41:01;;;;;;;9.90;8.90;;;2.60;99.90;;;;;;5129262;27;21044;-68
2023/01/28 03:43:28;;;;;;;10.02;9.02;;;2.60;99.90;;;;;;5096034;28;20054;-67
2023/01/28 03:45:55;;;;;;;9.63;8.63;;;2.50;99.90;;;;;;5128491;27;20060;-67
2023/01/28 03:48:23;;;;;;;10.35;9.35;;;2.50;99.90;;;;;;5116865;27;20036;-66
2023/01/28 03:50:49;;;;;;;9.90;8.90;;;2.50;99.90;;;;;;5128625;27;20043;-66
2023/01/28 03:53:16;;;;;;;9.48;8.57;;;2.50;99.90;;;;;;5118748;27;20051;-66
2023/01/28 03:55:42;;;;;;;10.13;9.13;;;2.50;99.90;;;;;;5115908;27;20118;-65
2023/01/28 03:58:11;;;;;;;9.77;8.80;;;2.50;99.90;;;;;;5113812;27;20184;-67
2023/01/28 04:00:40;;;;;;;9.82;8.82;;;2.50;99.90;;;;;;5107198;28;20055;-66
2023/01/28 04:03:17;;;;;;;9.50;8.50;;;2.50;99.90;;;;;;5129393;27;20051;-67
2023/01/28 04:06:01;;;;;;;9.95;8.38;;;2.50;99.90;;;;;;5117177;27;20043;-66
2023/01/28 04:08:27;;;;;;;9.38;8.48;;;2.50;99.90;;;;;;5124810;27;20429;-66
2023/01/28 04:10:53;;;;;;;9.73;8.82;;;2.50;99.90;;;;;;5107491;27;20044;-67
2023/01/28 04:13:19;;;;;;;10.13;9.18;;;2.50;99.90;;;;;;5108323;28;20108;-65
2023/01/28 04:15:45;;;;;;;8.88;8.07;;;2.50;99.90;;;;;;5127835;27;20035;-66
2023/01/28 04:18:11;;;;;;;10.00;9.00;;;2.50;99.90;;;;;;5108651;28;20067;-66
2023/01/28 04:20:38;;;;;;;9.77;8.77;;;2.50;99.90;;;;;;5124896;27;20462;-66
2023/01/28 04:23:04;;;;;;;10.13;9.02;;;2.50;99.90;;;;;;5107461;28;20475;-66
2023/01/28 04:25:30;;;;;;;10.20;9.20;;;2.50;99.90;;;;;;5111795;27;20063;-67
2023/01/28 04:27:56;;;;;;;10.15;8.98;;;2.50;99.90;;;;;;5125391;27;20110;-67
2023/01/28 04:30:22;;;;;;;9.20;8.30;;;2.50;99.90;;;;;;5128287;27;20039;-65
2023/01/28 04:32:50;;;;;;;9.20;8.30;;;2.50;99.90;;;;;;5113775;28;20387;-66
2023/01/28 04:35:17;;;;;;;9.23;8.32;;;2.50;99.90;;;;;;5122144;28;20039;-66
2023/01/28 04:37:43;;;;;;;9.00;8.10;;;2.50;99.90;;;;;;5126740;27;20035;-66
2023/01/28 04:40:10;;;;;;;8.60;7.80;;;2.50;99.90;;;;;;5111277;28;20043;-66
2023/01/28 04:42:36;;;;;;;9.00;8.15;;;2.50;99.90;;;;;;5116819;28;20043;-67
2023/01/28 04:45:02;;;;;;;9.85;8.20;;;2.50;99.90;;;;;;5108177;28;20043;-66
2023/01/28 04:47:27;;;;;;;10.38;9.23;;;2.50;99.90;;;;;;5108358;28;20032;-66
2023/01/28 04:49:53;;;;;;;9.85;8.85;;;2.40;99.90;;;;;;5124931;28;20056;-67
2023/01/28 04:52:19;;;;;;;9.77;8.77;;;2.40;99.90;;;;;;5123374;28;20389;-65
2023/01/28 04:54:45;;;;;;;9.30;8.40;;;2.40;99.90;;;;;;5113242;28;20504;-66
2023/01/28 04:57:11;;;;;;;9.45;8.55;;;2.50;99.90;;;;;;5110941;28;20043;-66
2023/01/28 04:59:36;;;;;;;10.63;8.95;;;2.50;99.90;;;;;;5114119;28;20066;-67
2023/01/28 05:02:02;;;;;;;9.95;8.95;;;2.40;99.90;;;;;;5114392;28;20058;-67
2023/01/28 05:04:28;;;;;;;10.40;9.40;;;2.40;99.90;;;;;;5106323;28;20508;-66
2023/01/28 05:06:54;;;;;;;9.95;8.95;;;2.50;99.90;;;;;;5106402;28;20493;-65
2023/01/28 05:09:19;;;;;;;10.25;9.18;;;2.50;99.90;;;;;;5114447;28;20453;-66
2023/01/28 05:11:45;;;;;;;9.55;8.55;;;2.40;99.90;;;;;;5108393;28;20044;-65
2023/01/28 05:14:11;;;;;;;14.13;9.75;;;2.40;99.90;;;;;;5119965;28;20122;-66
2023/01/28 05:16:37;;;;;;;10.43;9.32;;;2.40;99.90;;;;;;5118000;28;20061;-67
2023/01/28 05:19:02;;;;;;;10.13;9.13;;;2.40;99.90;;;;;;5129021;28;20031;-66
2023/01/28 05:21:28;;;;;;;11.45;10.00;;;2.30;99.90;;;;;;5117705;28;20039;-66
2023/01/28 05:23:54;;;;;;;11.10;9.88;;;2.40;99.90;;;;;;5117685;28;20130;-66
2023/01/28 05:26:20;;;;;;;9.73;8.65;;;2.30;99.90;;;;;;5108235;28;20050;-67
2023/01/28 05:28:46;;;;;;;10.82;9.70;;;2.30;99.90;;;;;;5127747;28;20050;-67
2023/01/28 05:31:11;;;;;;;12.43;9.68;;;2.30;99.90;;;;;;5116141;28;20051;-67
2023/01/28 05:33:37;;;;;;;10.77;9.60;;;2.30;99.90;;;;;;5125134;28;20042;-68
2023/01/28 05:36:03;;;;;;;10.13;8.68;;;2.30;99.90;;;;;;5111490;28;20114;-66
2023/01/28 05:38:29;;;;;;;9.65;8.65;;;2.30;99.90;;;;;;5112429;28;20059;-66
2023/01/28 05:40:55;;;;;;;11.27;8.50;;;2.30;99.90;;;;;;5113016;28;20497;-67
2023/01/28 05:43:20;;;;;;;9.52;8.52;;;2.30;99.90;;;;;;5117226;27;20501;-66
2023/01/28 05:45:47;;;;;;;9.10;8.15;;;2.30;99.90;;;;;;5122806;27;20040;-65
2023/01/28 05:48:13;;;;;;;8.85;7.93;;;2.30;99.90;;;;;;5113011;27;20056;-67
2023/01/28 05:50:38;;;;;;;11.57;8.68;;;2.20;99.90;;;;;;5132154;27;20035;-67
2023/01/28 05:53:08;;;;;;;9.15;7.53;;;2.20;99.90;;;;;;5110553;27;20063;-65
2023/01/28 05:55:33;;;;;;;9.60;8.50;;;2.20;99.90;;;;;;5124093;27;20043;-68
2023/01/28 05:57:59;;;;;;;9.68;8.32;;;2.30;99.90;;;;;;5117329;27;20036;-65
2023/01/28 06:00:25;;;;;;;8.75;7.85;;;2.30;99.90;;;;;;5131593;27;20051;-67
2023/01/28 06:02:51;;;;;;;8.32;7.43;;;2.30;99.90;;;;;;5111839;27;20035;-66
2023/01/28 06:05:17;;;;;;;9.20;7.78;;;2.40;99.90;;;;;;5108476;28;20047;-67
2023/01/28 06:07:47;;;;;;;9.45;8.00;;;2.40;99.90;;;;;;5124460;27;20043;-65
2023/01/28 06:10:19;;;;;;;10.98;7.90;;;2.40;99.90;;;;;;5119089;27;20045;-66
2023/01/28 06:12:44;;;;;;;8.95;8.05;;;2.40;99.90;;;;;;5116884;27;20039;-66
2023/01/28 06:15:10;;;;;;;9.77;7.95;;;2.40;99.90;;;;;;5125691;27;20040;-66
2023/01/28 06:17:36;;;;;;;8.27;7.38;;;2.40;99.90;;;;;;5106267;28;20066;-65
2023/01/28 06:20:02;;;;;;;7.78;6.95;;;2.40;99.90;;;;;;5109088;27;20027;-67
2023/01/28 06:22:28;;;;;;;9.18;8.05;;;2.40;99.90;;;;;;5119402;27;20031;-65
2023/01/28 06:24:53;;;;;;;10.48;7.57;;;2.30;99.90;;;;;;5123819;27;20055;-67
2023/01/28 06:27:19;;;;;;;9.30;7.05;;;2.20;99.90;;;;;;5112006;28;20028;-66
2023/01/28 06:29:45;;;;;;;10.13;8.23;;;2.20;99.90;;;;;;5108611;27;20058;-66
2023/01/28 06:32:11;;;;;;;9.93;8.88;;;2.20;99.90;;;;;;5093414;28;20091;-67
2023/01/28 06:34:36;;;;;;;11.45;10.13;;;2.30;99.90;;;;;;5108342;28;20043;-66
2023/01/28 06:37:03;;;;;;;10.13;9.10;;;2.30;99.90;;;;;;5122005;27;20414;-66
2023/01/28 06:39:31;;;;;;;11.07;9.55;;;2.30;99.90;;;;;;5116440;27;20036;-66
2023/01/28 06:41:57;;;;;;;11.90;9.32;;;2.30;99.90;;;;;;5111960;27;20055;-65
2023/01/28 06:44:23;;;;;;;10.52;9.40;;;2.30;99.90;;;;;;5101016;27;20053;-65
2023/01/28 06:46:49;;;;;;;11.23;9.60;;;2.40;99.90;;;;;;5131084;27;20644;-66
2023/01/28 06:49:14;;;;;;;10.27;9.18;;;2.30;99.90;;;;;;5117443;27;20082;-67
2023/01/28 06:51:40;;;;;;;11.48;9.95;;;2.20;99.90;;;;;;5109444;27;20046;-66
2023/01/28 06:54:06;;;;;;;13.13;10.70;;;2.20;99.90;;;;;;5128914;27;20450;-66
2023/01/28 06:56:31;;;;;;;10.93;9.80;;;2.20;99.90;;;;;;5113273;27;20397;-66
2023/01/28 06:58:57;;;;;;;10.65;9.55;;;2.10;99.90;;;;;;5130631;27;20039;-67
2023/01/28 07:01:23;;;;;;;12.73;9.68;;;2.10;99.90;;;;;;5114925;27;20542;-66
2023/01/28 07:03:49;;;;;;;11.35;9.63;;;2.10;99.90;;;;;;5130060;27;20035;-67
2023/01/28 07:06:14;;;;;;;12.05;9.43;;;2.10;99.90;;;;;;5130561;27;20038;-65
2023/01/28 07:08:40;;;;;;;10.48;9.32;;;2.20;99.90;;;;;;5130390;27;20088;-66
2023/01/28 07:11:06;;;;;;;10.77;8.80;;;2.20;99.90;;;;;;5122813;27;20050;-66
2023/01/28 07:13:32;;;;;;;11.50;8.93;;;2.20;99.90;;;;;;5129213;27;20039;-67
2023/01/28 07:15:57;;;;;;;10.75;9.05;;;2.10;99.90;;;;;;5130211;27;20080;-67
2023/01/28 07:18:23;;;;;;;12.27;9.65;;;2.00;99.90;;;;;;5130675;27;20392;-68
2023/01/28 07:20:49;;;;;;;12.00;9.00;;;1.90;99.90;;;;;;5130352;27;20033;-67
2023/01/28 07:23:14;;;;;;;10.77;9.20;;;1.90;99.90;;;;;;5110057;27;20181;-67
2023/01/28 07:25:40;;;;;;;12.70;9.02;;;1.90;99.90;;;;;;5129396;27;20074;-67
2023/01/28 07:28:06;;;;;;;10.63;9.00;;;1.80;99.90;;;;;;5123129;27;20039;-66
2023/01/28 07:30:31;;;;;;;10.75;8.88;;;1.80;99.90;;;;;;5110795;27;20035;-65
2023/01/28 07:32:58;;;;;;;10.80;9.10;;;1.70;99.90;;;;;;5102658;28;20119;-66
2023/01/28 07:35:24;;;;;;;12.07;9.23;;;1.70;99.90;;;;;;5112685;27;20048;-67
2023/01/28 07:37:55;;;;;;;9.43;8.43;;;1.70;99.90;;;;;;5129663;27;20035;-68
2023/01/28 07:40:21;;;;;;;11.30;8.48;;;1.80;99.90;;;;;;5129542;27;20058;-67
2023/01/28 07:42:47;;;;;;;12.75;8.98;;;1.90;99.90;;;;;;5125063;27;20039;-66
2023/01/28 07:45:14;;;;;;;10.95;8.63;;;1.90;99.90;;;;;;5129267;27;20651;-67
2023/01/28 07:47:40;;;;;;;9.77;8.02;;;2.00;99.90;;;;;;5116331;27;20397;-67
2023/01/28 07:50:06;;;;;;;10.50;8.38;;;2.00;99.90;;;;;;5129331;27;20034;-68
2023/01/28 07:52:37;;;;;;;10.27;8.88;;;2.10;99.90;;;;;;5129508;27;20446;-66
2023/01/28 07:55:04;;;;;;;10.73;9.15;;;2.10;99.90;;;;;;5094364;28;20039;-66
2023/01/28 07:57:29;;;;;;;10.70;9.48;;;2.10;99.90;;;;;;5129157;27;20126;-67
2023/01/28 07:59:55;;;;;;;10.63;9.40;;;2.00;99.90;;;;;;5129443;27;20126;-65
2023/01/28 08:02:20;;;;;;;10.88;9.43;;;2.00;99.90;;;;;;5129232;27;20055;-67
2023/01/28 08:04:46;;;;;;;9.80;8.30;;;2.00;99.90;;;;;;5113844;27;20086;-66
2023/01/28 08:07:12;;;;;;;10.45;9.13;;;1.90;99.90;;;;;;5128047;27;20043;-68
2023/01/28 08:09:38;;;;;;;11.43;9.63;;;1.90;99.90;;;;;;5128976;27;20046;-66
2023/01/28 08:12:03;;;;;;;12.20;9.60;;;1.80;99.90;;;;;;5129044;27;20035;-65
2023/01/28 08:14:29;;;;;;;11.82;9.68;;;1.90;99.90;;;;;;5127121;27;20043;-67
2023/01/28 08:16:56;;;;;;;11.20;9.25;;;1.90;99.90;;;;;;5107702;28;20118;-67
2023/01/28 08:19:21;;;;;;;11.95;9.20;;;1.80;99.90;;;;;;5128551;27;20129;-66
2023/01/28 08:21:47;;;;;;;12.63;10.02;;;1.90;99.90;;;;;;5113482;27;20189;-67
2023/01/28 08:24:13;;;;;;;11.80;9.77;;;2.00;99.90;;;;;;5128113;27;20566;-65
2023/01/28 08:26:38;;;;;;;11.73;9.25;;;2.00;99.90;;;;;;5113981;27;20047;-67
2023/01/28 08:29:04;;;;;;;12.65;9.70;;;2.00;99.90;;;;;;5128365;28;20427;-67
2023/01/28 08:31:30;;;;;;;12.60;9.52;;;2.00;99.90;;;;;;5113562;27;20088;-65
2023/01/28 08:33:56;;;;;;;13.15;9.93;;;2.00;99.90;;;;;;5123732;28;20143;-66
2023/01/28 08:36:21;;;;;;;11.40;9.50;;;2.00;99.90;;;;;;5101965;28;20039;-66
2023/01/28 08:38:53;;;;;;;12.43;9.68;;;2.00;99.90;;;;;;5112158;28;20367;-68
2023/01/28 08:41:23;;;;;;;11.70;9.23;;;2.00;99.90;;;;;;5128040;28;20361;-67
2023/01/28 08:43:49;;;;;;;12.23;10.05;;;2.00;99.90;;;;;;5111711;28;20087;-67
2023/01/28 08:46:15;;;;;;;13.40;10.52;;;2.00;99.90;;;;;;5128491;28;20485;-66
2023/01/28 08:48:41;;;;;;;12.35;10.20;;;2.10;99.90;;;;;;5107941;28;20042;-69
2023/01/28 08:51:06;;;;;;;12.15;10.55;;;2.10;99.90;;;;;;5120968;28;20031;-66
2023/01/28 08:53:32;;;;;;;12.50;10.30;;;2.20;99.90;;;;;;5107757;28;20125;-66
2023/01/28 08:55:58;;;;;;;11.93;10.38;;;2.20;99.90;;;;;;5127896;28;20054;-66
2023/01/28 08:58:23;;;;;;;14.00;10.27;;;2.10;99.90;;;;;;5113877;28;20196;-66
2023/01/28 09:00:49;;;;;;;10.57;9.30;;;2.00;99.90;;;;;;5112286;28;20031;-66
2023/01/28 09:03:16;;;;;;;12.18;10.13;;;2.00;99.90;;;;;;5107588;28;20523;-66
2023/01/28 09:05:41;;;;;;;12.15;9.15;;;1.90;99.90;;;;;;5124509;28;20045;-65
2023/01/28 09:08:10;;;;;;;11.77;10.05;;;2.00;99.90;;;;;;5107644;28;20035;-67
2023/01/28 09:10:36;;;;;;;16.23;10.55;;;2.00;99.90;;;;;;5127186;28;20077;-66
2023/01/28 09:13:11;;;;;;;12.10;10.00;;;2.00;99.90;;;;;;5114711;28;20054;-66
2023/01/28 09:15:37;;;;;;;11.93;9.63;;;2.00;99.90;;;;;;5110652;28;20054;-67
2023/01/28 09:18:03;;;;;;;13.73;10.98;;;2.00;99.90;;;;;;5126860;27;20450;-67
2023/01/28 09:20:31;;;;;;;12.90;10.68;;;2.00;99.90;;;;;;5110033;28;20043;-67
2023/01/28 09:22:58;;;;;;;12.00;10.48;;;2.10;99.90;;;;;;5091649;28;20096;-66
2023/01/28 09:25:23;;;;;;;12.20;9.18;;;2.30;99.90;;;;;;5096219;28;20078;-68
2023/01/28 09:27:49;;;;;;;11.80;9.55;;;2.40;99.90;;;;;;5110169;27;20039;-66
2023/01/28 09:30:15;;;;;;;16.55;9.68;;;2.50;99.90;;;;;;5111307;27;20440;-68
2023/01/28 09:32:41;;;;;;;9.98;8.90;;;2.60;99.90;;;;;;5129933;27;20054;-69
2023/01/28 09:35:07;;;;;;;10.90;9.68;;;2.70;99.90;;;;;;5118334;27;20402;-67
2023/01/28 09:37:32;;;;;;;13.10;9.18;;;2.90;99.90;;;;;;5110393;28;20096;-67
2023/01/28 09:39:58;;;;;;;10.63;8.88;;;3.00;99.90;;;;;;5105665;27;20047;-68
2023/01/28 09:43:23;;;;;;;12.43;9.32;;;3.00;99.90;;;;;;5117333;27;20051;-67
2023/01/28 09:45:50;;;;;;;12.05;9.40;;;3.00;99.90;;;;;;5011481;28;20164;-67
2023/01/28 09:48:20;;;;;;;13.18;8.82;;;3.00;99.90;;;;;;5008316;28;20540;-66
2023/01/28 09:50:49;;;;;;;11.63;9.30;;;3.10;99.90;;;;;;5026861;28;20061;-67
2023/01/28 09:53:20;;;;;;;10.43;8.63;;;3.10;99.90;;;;;;5012686;28;20463;-68
2023/01/28 09:55:52;;;;;;;9.07;8.13;;;3.10;99.90;;;;;;5012944;28;20033;-66
2023/01/28 09:58:18;;;;;;;9.30;7.87;;;3.10;99.90;;;;;;5012406;28;20073;-65
2023/01/28 10:00:46;;;;;;;10.88;8.73;;;3.20;99.90;;;;;;5008150;28;20077;-67
2023/01/28 10:03:21;;;;;;;11.15;8.98;;;3.50;99.90;;;;;;5011389;28;20049;-68
2023/01/28 10:05:56;;;;;;;9.45;8.48;;;3.80;99.90;;;;;;5012919;28;20045;-66
2023/01/28 10:08:39;;;;;;;10.90;9.15;;;4.20;99.90;;;;;;4994106;28;20042;-66
2023/01/28 10:11:23;;;;;;;11.15;8.93;;;4.50;99.90;;;;;;5010305;28;20124;-68
2023/01/28 10:14:08;;;;;;;9.88;8.88;;;4.60;99.90;;;;;;5011788;28;20045;-68
2023/01/28 10:16:40;;;;;;;11.15;9.65;;;4.90;99.90;;;;;;5079355;27;20055;-66
2023/01/28 10:19:17;;;;;;;9.93;8.90;;;5.10;99.90;;;;;;5117405;27;20386;-67
2023/01/28 10:22:07;;;;;;;9.77;8.18;;;5.50;99.90;;;;;;5121650;27;20118;-67
2023/01/28 10:24:43;;;;;;;9.70;8.70;;;5.60;99.90;;;;;;5130546;27;20095;-67
2023/01/28 10:27:14;;;;;;;9.95;8.07;;;5.60;99.90;;;;;;5124753;27;20039;-68
2023/01/28 10:29:42;;;;;;;12.00;8.70;;;5.70;99.90;;;;;;5110924;27;20080;-66
2023/01/28 10:32:23;;;;;;;11.10;9.18;;;5.90;99.90;;;;;;5115214;27;20055;-66
2023/01/28 10:34:51;;;;;;;8.75;7.85;;;5.90;99.90;;;;;;5115022;27;20370;-67
2023/01/28 10:37:17;;;;;;;12.90;8.73;;;5.90;99.90;;;;;;5117310;27;20067;-67
2023/01/28 10:39:44;;;;;;;12.57;8.73;;;5.80;99.90;;;;;;5116159;27;20058;-67
2023/01/28 10:42:32;;;;;;;10.10;9.00;;;6.30;99.90;;;;;;5112563;27;20035;-68
2023/01/28 10:45:19;;;;;;;10.23;8.75;;;6.60;99.90;;;;;;5110937;28;20481;-67
2023/01/28 10:48:05;;;;;;;10.10;9.02;;;6.70;99.90;;;;;;5126366;27;20038;-67
2023/01/28 10:50:31;;;;;;;11.25;9.23;;;6.80;99.90;;;;;;5126412;27;20546;-66
2023/01/28 10:53:01;;;;;;;10.40;8.45;;;6.80;99.90;;;;;;5129884;27;20154;-66
2023/01/28 10:55:53;;;;;;;9.98;8.02;;;7.30;99.90;;;;;;5130849;27;20122;-67
2023/01/28 10:58:22;;;;;;;8.98;8.05;;;7.60;99.90;;;;;;5118707;27;20061;-66
2023/01/28 11:00:53;;;;;;;8.77;7.65;;;7.50;99.90;;;;;;5123103;27;20043;-67
2023/01/28 11:03:19;;;;;;;9.55;8.02;;;7.30;99.90;;;;;;5123406;27;20470;-67
2023/01/28 11:05:53;;;;;;;8.50;7.57;;;7.50;99.90;;;;;;5117232;27;20105;-68
2023/01/28 11:08:20;;;;;;;7.82;7.10;;;7.90;99.90;;;;;;5119286;27;20535;-67
2023/01/28 11:10:47;;;;;;;8.75;6.38;;;8.10;99.90;;;;;;5091461;28;20043;-67
2023/01/28 11:13:25;;;;;;;7.30;5.97;;;8.30;99.90;;;;;;5110320;28;20105;-65
2023/01/28 11:16:05;;;;;;;7.85;6.40;;;8.10;99.90;;;;;;5111076;27;20036;-68
2023/01/28 11:18:49;;;;;;;8.05;6.47;;;8.30;99.90;;;;;;5107484;28;20055;-67
2023/01/28 11:21:18;;;;;;;7.65;6.72;;;8.40;99.90;;;;;;5129605;27;20035;-67
2023/01/28 11:23:52;;;;;;;7.43;6.20;;;8.20;99.90;;;;;;5120880;27;20043;-67
2023/01/28 11:26:22;;;;;;;8.13;6.47;;;8.50;99.90;;;;;;5122732;27;20118;-66
2023/01/28 11:28:48;;;;;;;7.95;7.00;;;8.70;99.90;;;;;;5109658;28;20076;-68
2023/01/28 11:31:16;;;;;;;7.97;7.00;;;8.90;99.90;;;;;;5120000;27;20492;-68
2023/01/28 11:33:51;;;;;;;8.10;6.40;;;8.40;99.90;;;;;;5119402;27;20516;-68
2023/01/28 11:36:26;;;;;;;7.07;6.38;;;8.20;99.90;;;;;;5112595;27;20046;-66
2023/01/28 11:38:54;;;;;;;7.70;6.90;;;8.20;99.90;;;;;;5109431;28;20043;-68
2023/01/28 11:41:27;;;;;;;7.57;6.88;;;8.00;99.90;;;;;;5115623;27;20043;-67
2023/01/28 11:43:54;;;;;;;7.35;6.65;;;8.20;99.90;;;;;;5130155;27;20094;-67
2023/01/28 11:46:49;;;;;;;7.68;6.90;;;7.90;99.90;;;;;;5113406;27;20044;-69
2023/01/28 11:49:24;;;;;;;8.82;7.05;;;7.80;99.90;;;;;;5122520;27;20038;-66
2023/01/28 11:52:22;;;;;;;9.07;7.72;;;7.40;99.90;;;;;;5111307;27;20120;-68
2023/01/28 11:55:12;;;;;;;7.22;6.53;;;7.50;99.90;;;;;;5108563;27;20533;-67
2023/01/28 11:58:10;;;;;;;7.53;6.82;;;8.00;99.90;;;;;;5109988;27;20035;-66
2023/01/28 12:01:02;;;;;;;7.32;6.63;;;8.80;99.90;;;;;;5109279;28;20067;-67
2023/01/28 12:03:37;;;;;;;;;;;9.00;99.90;;;;;;5109479;27;20058;-67
2023/01/28 12:06:34;;;;;;;8.10;6.68;;;8.40;99.90;;;;;;5108570;28;19920;-65
2023/01/28 12:09:14;;;;;;;7.28;6.13;;;8.10;99.90;;;;;;5116306;27;20039;-66
2023/01/28 12:12:10;;;;;;;7.55;6.65;;;8.20;99.90;;;;;;5110720;27;20039;-67
2023/01/28 12:14:51;;;;;;;7.30;6.47;;;8.40;99.90;;;;;;5119704;27;20027;-67
2023/01/28 12:17:44;;;;;;;7.97;6.15;;;8.20;99.90;;;;;;5111462;27;20036;-66
2023/01/28 12:20:10;;;;;;;;;;;7.50;99.90;;;;;;5118120;27;20036;-66
2023/01/28 12:23:08;;;;;;;10.48;7.32;;;7.10;99.90;;;;;;5115044;27;19924;-67
2023/01/28 12:25:45;;;;;;;11.88;8.43;;;6.90;99.90;;;;;;5118694;27;20129;-67
2023/01/28 12:28:19;;;;;;;10.23;7.72;;;7.80;99.90;;;;;;5108162;28;20062;-67
2023/01/28 12:30:48;;;;;;;10.02;8.13;;;8.10;99.90;;;;;;5111229;27;20044;-68
2023/01/28 12:33:26;;;;;;;13.07;8.50;;;7.80;99.90;;;;;;5128332;27;20105;-66
2023/01/28 12:36:08;;;;;;;11.68;7.32;;;8.00;99.90;;;;;;5106887;28;20036;-66
2023/01/28 12:38:43;;;;;;;9.02;6.60;;;7.70;99.90;;;;;;5107323;28;20031;-65
2023/01/28 12:41:19;;;;;;;9.25;7.80;;;7.50;99.90;;;;;;5115936;28;20054;-68
2023/01/28 12:44:09;;;;;;;9.10;7.18;;;6.90;99.90;;;;;;5127020;28;20057;-68
2023/01/28 12:46:41;;;;;;;10.10;7.90;;;6.60;99.90;;;;;;5106886;28;20043;-66
2023/01/28 12:49:09;;;;;;;10.57;7.97;;;6.30;99.90;;;;;;5110309;28;20055;-66
2023/01/28 12:51:57;;;;;;;11.80;8.75;;;6.10;99.90;;;;;;5132564;27;20165;-66
2023/01/28 12:54:36;;;;;;;10.45;8.15;;;5.90;99.90;;;;;;5133445;27;20558;-66
2023/01/28 12:57:02;;;;;;;12.00;8.52;;;5.70;99.90;;;;;;5110455;28;20424;-66
2023/01/28 12:59:44;;;;;;;11.40;8.25;;;5.70;99.90;;;;;;5113951;27;20126;-67
2023/01/28 13:02:12;;;;;;;10.67;7.80;;;5.50;99.90;;;;;;5109882;28;20042;-66
2023/01/28 13:04:43;;;;;;;9.85;7.63;;;5.40;99.90;;;;;;5131719;27;20043;-66
2023/01/28 13:07:26;;;;;;;10.25;7.28;;;6.50;99.90;;;;;;5124656;27;20043;-66
2023/01/28 13:10:01;;;;;;;23.95;17.70;;;7.50;99.90;;;;;;5110711;28;20047;-68
2023/01/28 13:12:27;;;;;;;47.33;38.58;;;8.10;99.90;;;;;;5107943;28;20291;-67
2023/01/28 13:14:53;;;;;;;27.65;22.95;;;8.10;99.90;;;;;;5112050;28;20050;-66
2023/01/28 13:17:31;;;;;;;11.52;8.45;;;8.40;99.90;;;;;;5116126;27;20043;-67
2023/01/28 13:19:58;;;;;;;15.00;13.25;;;8.30;99.90;;;;;;5110565;28;20077;-66
2023/01/28 13:22:36;;;;;;;14.18;9.43;;;8.00;99.90;;;;;;5116218;27;20043;-66
2023/01/28 13:25:26;;;;;;;9.07;8.13;;;7.30;99.90;;;;;;5129179;27;20023;-67
2023/01/28 13:28:04;;;;;;;9.35;7.57;;;6.80;99.90;;;;;;5120746;27;20563;-67
2023/01/28 13:30:46;;;;;;;8.65;6.88;;;7.10;99.90;;;;;;5110068;28;20043;-67
2023/01/28 13:33:36;;;;;;;9.02;6.80;;;7.70;99.90;;;;;;5115058;27;20138;-66
2023/01/28 13:36:27;;;;;;;12.52;11.32;;;9.60;99.90;;;;;;5112269;27;20123;-66
2023/01/28 13:39:17;;;;;;;7.55;6.72;;;10.70;99.90;;;;;;5110704;28;20106;-68